SARI METAR and TAF weather

Enter ICAO airport designator
Station Type Date Time Source
SARI METAR 2019/09/21 04:00 UTC NOAA

SARI 210400Z 18004KT CAVOK 17/16 Q1016


Station Type Date Time Source
SARI Decoded METAR 2019/09/21 04:00 UTC NOAA

Iguazu Aerodrome, Argentina (SARI) 25-44S 054-28W 270M
Sep 21, 2019 - 12:00 AM EDT / 2019.09.21 0400 UTC
Wind: from the S (180 degrees) at 5 MPH (4 KT):0
Visibility: greater than 7 mile(s):0
Temperature: 62 F (17 C)
Dew Point: 60 F (16 C)
Relative Humidity: 93%
Pressure (altimeter): 30.00 in. Hg (1016 hPa)
ob: SARI 210400Z 18004KT CAVOK 17/16 Q1016
cycle: 4

Station Type Date Time Source
SARI TAF 2019/09/21 00:00 UTC NOAA

TAF SARI 202300Z 2100/2124 18005KT CAVOK TX26/2118Z TN14/2110Z PROB40 2108/2112 2000 BR NSC

Example: see airport list